createdAt,value
2022-09-22T03:19:57.399Z,100.00
2022-09-22T03:23:07.619Z,100.00
2022-09-22T03:26:17.227Z,100.00
2022-09-22T03:29:26.843Z,100.00
2022-09-22T03:32:36.756Z,100.00
2022-09-22T03:35:47.864Z,100.00
2022-09-22T03:39:00.019Z,100.00
2022-09-22T03:42:10.443Z,100.00
2022-09-22T03:45:20.104Z,100.00
2022-09-22T03:48:31.058Z,100.00
2022-09-22T03:51:41.988Z,100.00
2022-09-22T03:54:52.147Z,100.00
2022-09-22T03:58:01.794Z,100.00
2022-09-22T04:01:12.134Z,100.00
2022-09-22T04:04:21.754Z,100.00
2022-09-22T04:07:32.669Z,100.00
2022-09-22T04:10:42.265Z,100.00
2022-09-22T04:13:52.277Z,100.00
2022-09-22T04:17:02.066Z,100.00
2022-09-22T04:20:12.080Z,100.00
2022-09-22T04:23:22.993Z,100.00
2022-09-22T04:26:32.578Z,100.00
2022-09-22T04:29:42.275Z,100.00
2022-09-22T04:32:51.922Z,100.00
2022-09-22T04:36:01.726Z,100.00
2022-09-22T04:39:12.625Z,100.00
2022-09-22T04:42:22.614Z,100.00
2022-09-22T04:45:36.054Z,100.00
2022-09-22T04:48:48.917Z,100.00
2022-09-22T04:51:58.972Z,100.00
2022-09-22T04:55:11.278Z,100.00
2022-09-22T04:58:20.932Z,100.00
2022-09-22T07:04:05.895Z,100.00
2022-09-22T07:07:16.606Z,100.00
2022-09-22T07:10:26.391Z,100.00
2022-09-22T07:13:39.794Z,100.00
2022-09-22T07:16:52.474Z,100.00
2022-09-22T07:20:04.878Z,100.00
2022-09-22T07:23:18.389Z,100.00
2022-09-22T07:26:32.375Z,100.00
2022-09-22T07:29:42.790Z,100.00
2022-09-22T07:32:52.464Z,100.00
2022-09-22T07:36:08.989Z,100.00
2022-09-22T07:40:21.804Z,100.00
2022-09-22T07:43:33.871Z,100.00
2022-09-22T07:46:43.524Z,100.00
2022-09-22T07:49:53.955Z,100.00
2022-09-22T07:53:05.094Z,100.00
2022-09-22T07:56:16.928Z,98.87
2022-09-22T07:59:29.483Z,97.67
2022-09-22T08:02:40.886Z,96.29
2022-09-22T08:05:52.296Z,94.84
2022-09-22T08:09:06.918Z,93.03
2022-09-22T08:12:17.046Z,90.97
2022-09-22T08:15:27.506Z,89.49
2022-09-22T08:18:37.850Z,86.82
2022-09-22T08:21:49.816Z,84.75
2022-09-22T08:25:00.829Z,83.00
2022-09-22T08:28:11.136Z,80.19
2022-09-22T08:31:21.366Z,76.42
2022-09-22T08:34:31.052Z,74.30
2022-09-22T08:37:42.371Z,73.62
2022-09-22T08:41:07.649Z,73.16
2022-09-22T08:44:22.888Z,72.97
2022-09-22T08:47:55.761Z,73.26
2022-09-22T08:51:22.846Z,71.86
2022-09-22T08:54:33.160Z,72.32
2022-09-22T08:58:01.777Z,71.55
2022-09-22T09:01:27.732Z,70.03
2022-09-22T09:05:04.970Z,68.61
2022-09-22T09:08:41.436Z,66.42
2022-09-22T09:12:16.390Z,65.34
2022-09-22T09:15:41.761Z,63.80
2022-09-22T09:18:58.520Z,62.08
2022-09-22T09:22:22.827Z,60.10
2022-09-22T09:25:36.807Z,59.91
2022-09-22T09:28:50.316Z,59.51
2022-09-22T09:32:07.270Z,58.93
2022-09-22T09:35:19.244Z,57.58
2022-09-22T09:38:32.126Z,53.31
2022-09-22T09:41:46.655Z,52.18
2022-09-22T09:45:02.458Z,50.58
2022-09-22T09:48:24.842Z,48.52
2022-09-22T09:51:39.885Z,47.85
2022-09-22T09:54:50.704Z,47.72
2022-09-22T09:58:06.857Z,47.58
2022-09-22T10:01:15.623Z,47.95
2022-09-22T10:04:34.286Z,47.34
2022-09-22T10:07:46.671Z,46.27
2022-09-22T10:10:59.000Z,45.65
2022-09-22T10:14:19.896Z,47.54
2022-09-22T10:17:33.771Z,45.26
2022-09-22T10:20:44.704Z,43.81
2022-09-22T10:23:55.688Z,44.87
2022-09-22T10:27:06.915Z,45.18
2022-09-22T10:30:23.650Z,44.70
2022-09-22T10:33:34.215Z,45.03
2022-09-22T10:36:47.994Z,44.41
2022-09-22T10:40:02.247Z,43.29
2022-09-22T10:43:26.778Z,42.69
2022-09-22T10:46:57.912Z,41.23
2022-09-22T10:50:28.928Z,40.52
2022-09-22T10:54:06.257Z,41.26
2022-09-22T10:57:32.727Z,40.13
2022-09-22T11:00:42.774Z,39.90
2022-09-22T11:04:09.935Z,41.25
2022-09-22T11:07:47.759Z,40.85
2022-09-22T11:11:17.198Z,41.66
2022-09-22T11:14:40.037Z,40.61
2022-09-22T11:18:09.172Z,40.15
2022-09-22T11:21:33.033Z,39.43
2022-09-22T11:24:55.800Z,40.25
2022-09-22T11:28:20.664Z,41.53
2022-09-22T11:31:42.830Z,40.79
2022-09-22T11:35:04.238Z,40.13
2022-09-22T11:38:31.786Z,40.88
2022-09-22T11:41:43.541Z,41.41
2022-09-22T11:45:06.791Z,41.83
2022-09-22T11:48:48.426Z,40.47
2022-09-22T11:52:17.391Z,40.47
2022-09-22T11:55:36.941Z,41.15
2022-09-22T11:58:47.707Z,39.46
2022-09-22T12:02:04.652Z,40.38
2022-09-22T12:05:21.070Z,40.16
2022-09-22T12:08:37.260Z,39.04
2022-09-22T12:11:47.565Z,39.65
2022-09-22T12:15:01.494Z,40.83
2022-09-22T12:18:18.349Z,40.05
2022-09-22T12:21:40.856Z,39.71
2022-09-22T12:24:50.520Z,38.82
2022-09-22T12:28:00.129Z,39.89
2022-09-22T12:31:14.275Z,40.02
2022-09-22T12:34:27.880Z,39.28
2022-09-22T13:01:30.086Z,40.57
2022-09-22T13:04:40.592Z,40.96
2022-09-22T13:07:50.899Z,39.85
2022-09-22T13:11:02.568Z,40.83
2022-09-22T13:14:42.714Z,40.36
2022-09-22T13:17:54.732Z,40.24
2022-09-22T13:21:20.660Z,40.88
2022-09-22T13:24:31.415Z,41.69
2022-09-22T13:27:42.315Z,40.96
2022-09-22T13:31:04.807Z,40.95
2022-09-22T13:34:21.985Z,41.28
2022-09-22T13:37:35.345Z,42.64
2022-09-22T13:40:49.469Z,43.29
2022-09-22T13:44:04.088Z,44.32
2022-09-22T13:47:19.266Z,44.50
2022-09-22T13:50:32.839Z,44.92
2022-09-22T13:53:48.164Z,45.45
2022-09-22T13:56:58.665Z,46.47
2022-09-22T14:00:20.751Z,46.09
2022-09-22T14:03:37.991Z,47.57
2022-09-22T14:06:52.200Z,48.29
2022-09-22T14:10:03.800Z,48.13
2022-09-22T14:13:38.235Z,48.29
2022-09-22T14:16:51.897Z,47.88
2022-09-22T14:20:04.900Z,48.67
2022-09-22T14:23:21.300Z,50.53
2022-09-22T14:26:37.634Z,50.68
2022-09-22T14:29:50.781Z,51.44
2022-09-22T14:33:04.140Z,51.60
2022-09-22T14:36:19.378Z,50.47
2022-09-22T14:39:34.342Z,52.51
2022-09-22T14:42:57.542Z,50.99
2022-09-22T14:46:31.088Z,50.22
2022-09-22T14:49:44.773Z,50.89
2022-09-22T14:52:59.220Z,50.41
2022-09-22T14:56:16.186Z,51.39
2022-09-22T14:59:40.597Z,50.79
2022-09-22T15:02:55.626Z,51.59
2022-09-22T15:06:09.173Z,50.45
2022-09-22T15:09:25.758Z,49.93
2022-09-22T15:12:40.358Z,50.77
2022-09-22T15:15:50.688Z,51.33
2022-09-22T15:19:01.402Z,51.57
2022-09-22T15:22:14.485Z,53.29
2022-09-22T15:25:25.094Z,52.80
2022-09-22T15:28:38.149Z,52.83
2022-09-22T15:31:48.506Z,52.90
2022-09-22T15:35:00.036Z,52.62
2022-09-22T15:38:19.420Z,52.72
2022-09-22T15:41:29.821Z,53.03
2022-09-22T15:44:41.902Z,52.60
2022-09-22T15:47:54.933Z,53.15
2022-09-22T15:51:06.970Z,54.41
2022-09-22T15:54:18.929Z,54.87
2022-09-22T15:57:29.790Z,55.69
2022-09-22T16:00:41.384Z,53.86
2022-09-22T16:03:53.012Z,54.59
2022-09-22T16:07:12.615Z,54.65
2022-09-22T16:10:25.755Z,56.28
2022-09-22T16:13:40.281Z,56.87
2022-09-22T16:16:52.583Z,56.73
2022-09-22T16:20:04.340Z,56.51
2022-09-22T16:23:24.572Z,56.73
2022-09-22T16:26:37.064Z,58.80
2022-09-22T16:29:48.947Z,60.58
2022-09-22T16:33:06.983Z,61.59
2022-09-22T16:36:17.431Z,62.97
2022-09-22T16:39:28.320Z,65.31
2022-09-22T16:42:39.215Z,65.16
2022-09-22T16:46:01.378Z,66.58
2022-09-22T16:49:30.996Z,68.54
2022-09-22T16:52:47.562Z,68.05
2022-09-22T16:55:59.704Z,69.14
2022-09-22T16:59:10.113Z,69.17
2022-09-22T17:02:21.049Z,70.92
2022-09-22T17:05:33.707Z,71.39
2022-09-22T17:08:45.974Z,71.63
2022-09-22T17:11:58.051Z,72.02
2022-09-22T17:15:12.141Z,73.22
2022-09-22T17:18:23.821Z,73.90
2022-09-22T17:21:36.887Z,74.52
2022-09-22T17:24:47.318Z,75.49
2022-09-22T17:27:58.361Z,75.57
2022-09-22T17:31:09.183Z,76.21
2022-09-22T17:34:19.368Z,76.44
2022-09-22T17:37:30.476Z,76.92
2022-09-22T17:40:43.661Z,77.94
2022-09-22T17:43:57.481Z,77.72
2022-09-22T17:47:18.882Z,79.01
2022-09-22T17:50:40.847Z,79.44
2022-09-22T17:54:05.308Z,80.84
2022-09-22T17:57:17.190Z,82.03
2022-09-22T18:00:27.176Z,82.38
2022-09-22T18:03:37.984Z,83.09
2022-09-22T18:06:51.040Z,83.52
2022-09-22T18:10:03.142Z,84.53
2022-09-22T18:13:13.350Z,84.84
2022-09-22T18:16:30.478Z,86.03
2022-09-22T18:19:43.181Z,85.74
2022-09-22T18:22:55.315Z,86.97
2022-09-22T18:26:06.888Z,87.31
2022-09-22T18:29:19.268Z,87.47
2022-09-22T18:32:35.289Z,87.25
2022-09-22T18:35:47.438Z,88.45
2022-09-22T18:38:57.646Z,88.74
2022-09-22T18:42:11.393Z,88.97
2022-09-22T18:45:21.693Z,89.23
2022-09-22T18:48:33.260Z,89.74
2022-09-22T18:51:49.061Z,90.18
2022-09-22T18:54:59.209Z,91.37
2022-09-22T18:58:12.258Z,92.43
2022-09-22T19:01:23.798Z,92.67
2022-09-22T19:04:33.779Z,93.02
2022-09-22T19:07:51.216Z,94.07
2022-09-22T19:11:01.982Z,93.70
2022-09-22T19:14:17.951Z,94.12
2022-09-22T19:17:28.590Z,94.48
2022-09-22T19:20:42.375Z,93.91
2022-09-22T19:23:55.913Z,94.75
2022-09-22T19:27:08.636Z,94.79
